This is the latest recevied weather packets stored in our database for station/object KD4VIF. If no packets are shown the sender has not sent any weather packets the latest 10 day(s).
| Time | Temp. | Humidity | Pressure | Rain* | Wind** | Luminosity | Snow |
|---|---|---|---|---|---|---|---|
| 1778102802 | 25.56° C | 100% | 1010.8 hPa | 0 mm | 0.45 m/s, 178° | - | - |
| 1778102502 | 26.11° C | 100% | 1010.7 hPa | 0 mm | 0.89 m/s, 229° | - | - |
| 1778102202 | 26.11° C | 100% | 1010.7 hPa | 0 mm | 0 m/s | - | - |
| 1778101603 | 25.56° C | 100% | 1010.6 hPa | 0 mm | 0.45 m/s, 213° | - | - |
| 1778101302 | 25.56° C | 100% | 1010.8 hPa | 0 mm | 1.34 m/s, 327° | - | - |
| 1778101002 | 25.56° C | 100% | 1010.8 hPa | 0 mm | 1.34 m/s, 288° | - | - |
| 1778100702 | 25.56° C | 100% | 1010.8 hPa | 0 mm | 0.45 m/s, 345° | - | - |
| 1778100402 | 25.56° C | 100% | 1011 hPa | 0 mm | 0 m/s | - | - |
| 1778099802 | 25.56° C | 100% | 1011.1 hPa | 0 mm | 0 m/s | - | - |
| 1778099502 | 25° C | 100% | 1011.2 hPa | 0 mm | 0.89 m/s, 243° | - | - |
| 1778098902 | 24.44° C | 100% | 1011.6 hPa | 0 mm | 2.24 m/s, 298° | - | - |
| 1778098603 | 24.44° C | 100% | 1011.4 hPa | 0 mm | 0.45 m/s, 19° | - | - |
| 1778098003 | 24.44° C | 100% | 1011.7 hPa | 0 mm | 0 m/s | - | - |
| 1778097702 | 24.44° C | 100% | 1011.8 hPa | 0 mm | 1.34 m/s, 307° | - | - |
| 1778097402 | 24.44° C | 100% | 1012 hPa | 0 mm | 1.79 m/s, 309° | - | - |
| 1778097102 | 24.44° C | 100% | 1012 hPa | 0 mm | 0.45 m/s, 288° | - | - |
| 1778096803 | 23.89° C | 100% | 1012.1 hPa | 0 mm | 0 m/s | - | - |
| 1778096202 | 23.89° C | 100% | 1012 hPa | 0 mm | 1.34 m/s, 313° | - | - |
| 1778095902 | 23.89° C | 100% | 1011.9 hPa | 0 mm | 0 m/s | - | - |
| 1778095602 | 23.33° C | 100% | 1012.1 hPa | 0 mm | 0.45 m/s, 151° | - | - |
| 1778095302 | 23.33° C | 100% | 1012.3 hPa | 0 mm | 1.34 m/s, 313° | - | - |
| 1778095002 | 23.89° C | 100% | 1012.6 hPa | 0 mm | 1.34 m/s, 291° | - | - |
| 1778094101 | 23.33° C | 100% | 1012.3 hPa | 0 mm | 0 m/s | - | - |
| 1778093802 | 23.33° C | 100% | 1012.1 hPa | 0 mm | 0 m/s | - | - |
| 1778093502 | 23.33° C | 100% | 1013.4 hPa | 0 mm | 0.45 m/s, 272° | - | - |
* Rain latest hour (hover to see other rain measurements)
** Current wind speed in m/s (hover to see current wind gust speed)